createdAt,value
2022-11-07T00:02:05.254Z,98345.94
2022-11-07T00:04:35.301Z,98339.69
2022-11-07T00:07:03.771Z,98335.91
2022-11-07T00:09:31.773Z,98342.47
2022-11-07T00:11:59.796Z,98340.94
2022-11-07T00:14:27.847Z,98339.19
2022-11-07T00:16:55.898Z,98344.72
2022-11-07T00:19:23.863Z,98346.19
2022-11-07T00:21:53.274Z,98348.75
2022-11-07T00:24:21.269Z,98344.69
2022-11-07T00:26:49.493Z,98350.25
2022-11-07T00:29:19.668Z,98345.84
2022-11-07T00:31:48.231Z,98352.75
2022-11-07T00:34:16.720Z,98346.06
2022-11-07T00:36:45.049Z,98340.78
2022-11-07T00:39:14.463Z,98341.47
2022-11-07T00:41:42.499Z,98340.88
2022-11-07T00:44:10.485Z,98332.28
2022-11-07T00:46:38.440Z,98337.50
2022-11-07T00:49:06.421Z,98330.91
2022-11-07T00:51:34.420Z,98334.66
2022-11-07T00:54:03.650Z,98326.47
2022-11-07T00:56:33.063Z,98319.44
2022-11-07T00:59:01.601Z,98328.91
2022-11-07T01:01:32.332Z,98313.97
2022-11-07T01:04:18.518Z,98321.19
2022-11-07T01:06:48.282Z,98321.50
2022-11-07T01:09:19.881Z,98314.97
2022-11-07T01:11:49.932Z,98320.28
2022-11-07T01:14:20.706Z,98314.75
2022-11-07T01:16:48.990Z,98305.84
2022-11-07T01:19:17.694Z,98308.06
2022-11-07T01:21:46.217Z,98306.31
2022-11-07T01:24:14.932Z,98297.34
2022-11-07T01:26:44.739Z,98296.25
2022-11-07T01:29:14.123Z,98302.75
2022-11-07T01:31:42.319Z,98293.00
2022-11-07T01:34:10.539Z,98300.03
2022-11-07T01:36:38.785Z,98296.75
2022-11-07T01:39:07.489Z,98296.34
2022-11-07T01:41:39.050Z,98298.75
2022-11-07T01:44:40.341Z,98294.88
2022-11-07T01:47:12.433Z,98298.19
2022-11-07T01:49:43.185Z,98289.97
2022-11-07T01:52:16.220Z,98287.63
2022-11-07T01:54:49.340Z,98291.50
2022-11-07T01:57:21.760Z,98279.88
2022-11-07T01:59:52.248Z,98276.44
2022-11-07T02:02:22.267Z,98273.47
2022-11-07T02:04:50.325Z,98271.91
2022-11-07T02:07:21.783Z,98262.78
2022-11-07T02:09:51.006Z,98266.06
2022-11-07T02:12:20.092Z,98262.97
2022-11-07T02:14:48.080Z,98263.31
2022-11-07T02:17:17.355Z,98266.03
2022-11-07T02:19:49.824Z,98266.09
2022-11-07T02:22:26.468Z,98261.44
2022-11-07T02:24:59.271Z,98264.44
2022-11-07T02:27:30.452Z,98258.41
2022-11-07T02:30:02.680Z,98252.00
2022-11-07T02:32:30.898Z,98255.66
2022-11-07T02:35:00.087Z,98247.78
2022-11-07T02:37:32.114Z,98247.72
2022-11-07T02:40:04.272Z,98253.25
2022-11-07T02:42:44.423Z,98257.25
2022-11-07T02:45:15.260Z,98261.06
2022-11-07T02:47:43.632Z,98255.75
2022-11-07T02:50:14.491Z,98252.91
2022-11-07T02:52:42.567Z,98252.41
2022-11-07T02:55:13.886Z,98255.44
2022-11-07T02:57:42.532Z,98234.81
2022-11-07T03:00:13.237Z,98246.13
2022-11-07T03:02:46.963Z,98231.31
2022-11-07T03:05:16.342Z,98235.63
2022-11-07T03:07:45.340Z,98232.59
2022-11-07T03:10:15.775Z,98238.16
2022-11-07T03:12:44.114Z,98232.22
2022-11-07T03:15:13.635Z,98237.72
2022-11-07T03:17:41.695Z,98241.47
2022-11-07T03:20:11.177Z,98244.50
2022-11-07T03:22:39.891Z,98248.63
2022-11-07T03:25:08.726Z,98242.94
2022-11-07T03:27:38.176Z,98245.88
2022-11-07T03:30:07.054Z,98252.25
2022-11-07T03:32:34.987Z,98239.53
2022-11-07T03:35:03.072Z,98241.38
2022-11-07T03:37:31.015Z,98245.47
2022-11-07T03:39:59.008Z,98248.38
2022-11-07T03:42:26.995Z,98242.94
2022-11-07T03:44:56.439Z,98247.97
2022-11-07T03:47:24.393Z,98247.88
2022-11-07T03:49:52.340Z,98249.34
2022-11-07T03:52:20.354Z,98247.41
2022-11-07T03:54:48.444Z,98242.22
2022-11-07T03:57:16.553Z,98238.13
2022-11-07T03:59:44.599Z,98236.59
2022-11-07T04:02:14.085Z,98239.34
2022-11-07T04:04:42.151Z,98234.16
2022-11-07T04:07:10.274Z,98231.72
2022-11-07T04:09:38.222Z,98235.06
2022-11-07T04:12:24.119Z,98236.84
2022-11-07T04:15:10.047Z,98248.38
2022-11-07T04:17:39.431Z,98244.38
2022-11-07T04:20:08.730Z,98235.09
2022-11-07T04:22:36.820Z,98231.66
2022-11-07T04:25:05.776Z,98238.97
2022-11-07T04:27:44.965Z,98238.84
2022-11-07T04:30:23.752Z,98228.69
2022-11-07T04:32:54.767Z,98221.88
2022-11-07T04:35:24.628Z,98221.25
2022-11-07T04:37:53.187Z,98218.91
2022-11-07T04:40:21.880Z,98216.16
2022-11-07T04:42:50.594Z,98217.78
2022-11-07T04:45:19.448Z,98209.97
2022-11-07T04:47:47.820Z,98210.88
2022-11-07T04:50:20.273Z,98218.25
2022-11-07T04:52:49.058Z,98203.81
2022-11-07T04:55:22.991Z,98204.72
2022-11-07T04:57:51.267Z,98213.84
2022-11-07T05:00:20.552Z,98211.34
2022-11-07T05:02:49.736Z,98203.44
2022-11-07T05:05:19.710Z,98213.63
2022-11-07T05:07:48.864Z,98211.88
2022-11-07T05:10:20.532Z,98210.19
2022-11-07T05:12:48.981Z,98204.94
2022-11-07T05:15:17.495Z,98198.84
2022-11-07T05:17:45.769Z,98201.59
2022-11-07T05:20:29.368Z,98203.47
2022-11-07T05:23:17.934Z,98200.25
2022-11-07T05:25:48.479Z,98202.22
2022-11-07T05:28:25.749Z,98197.47
2022-11-07T05:30:59.071Z,98205.28
2022-11-07T05:33:27.347Z,98206.78
2022-11-07T05:35:56.705Z,98209.53
2022-11-07T05:38:24.730Z,98214.16
2022-11-07T05:40:52.673Z,98213.34
2022-11-07T05:43:20.659Z,98217.13
2022-11-07T05:45:48.623Z,98218.94
2022-11-07T05:48:16.624Z,98216.31
2022-11-07T05:50:44.564Z,98224.22
2022-11-07T05:53:14.571Z,98220.09
2022-11-07T05:55:43.087Z,98223.06
2022-11-07T05:58:12.554Z,98224.78
2022-11-07T06:00:41.566Z,98236.91
2022-11-07T06:03:09.930Z,98235.19
2022-11-07T06:05:39.192Z,98256.28
2022-11-07T06:08:07.851Z,98262.00
2022-11-07T06:10:37.313Z,98259.09
2022-11-07T06:13:07.282Z,98257.72
2022-11-07T06:15:37.416Z,98262.09
2022-11-07T06:18:07.467Z,98260.19
2022-11-07T06:20:35.900Z,98272.63
2022-11-07T06:23:05.794Z,98269.31
2022-11-07T06:25:34.048Z,98276.06
2022-11-07T06:28:05.582Z,98269.72
2022-11-07T06:30:34.599Z,98272.44
2022-11-07T06:33:03.825Z,98273.31
2022-11-07T06:35:32.102Z,98277.59
2022-11-07T06:38:02.877Z,98275.75
2022-11-07T06:40:30.893Z,98285.91
2022-11-07T06:43:07.686Z,98290.25
2022-11-07T06:45:36.219Z,98282.38
2022-11-07T06:48:04.517Z,98286.13
2022-11-07T06:50:32.539Z,98289.84
2022-11-07T06:53:03.151Z,98283.19
2022-11-07T06:55:31.216Z,98292.25
2022-11-07T06:58:00.755Z,98295.28
2022-11-07T07:00:30.940Z,98285.31
2022-11-07T07:02:59.545Z,98287.03
2022-11-07T07:05:27.731Z,98300.69
2022-11-07T07:07:56.245Z,98300.25
2022-11-07T07:10:25.324Z,98305.56
2022-11-07T07:12:53.668Z,98304.75
2022-11-07T07:15:21.753Z,98302.97
2022-11-07T07:17:51.222Z,98296.75
2022-11-07T07:20:19.447Z,98306.59
2022-11-07T07:22:53.284Z,98304.88
2022-11-07T07:25:25.013Z,98308.97
2022-11-07T07:27:53.142Z,98305.97
2022-11-07T07:30:21.171Z,98312.25
2022-11-07T07:32:50.512Z,98301.19
2022-11-07T07:35:18.671Z,98299.88
2022-11-07T07:37:50.738Z,98303.56
2022-11-07T07:40:19.145Z,98298.47
2022-11-07T07:42:47.599Z,98296.75
2022-11-07T07:45:17.431Z,98291.13
2022-11-07T07:47:45.574Z,98284.25
2022-11-07T07:50:15.399Z,98283.97
2022-11-07T07:52:43.860Z,98288.63
2022-11-07T07:55:12.058Z,98278.38
2022-11-07T07:57:41.306Z,98282.19
2022-11-07T08:00:11.492Z,98288.81
2022-11-07T08:02:43.944Z,98287.38
2022-11-07T08:05:13.161Z,98285.28
2022-11-07T08:07:50.072Z,98292.41
2022-11-07T08:13:07.610Z,98290.72
2022-11-07T08:15:35.681Z,98286.09
2022-11-07T08:18:04.130Z,98284.91
2022-11-07T08:20:32.673Z,98288.28
2022-11-07T08:23:14.612Z,98285.00
2022-11-07T08:25:44.558Z,98280.03
2022-11-07T08:28:12.542Z,98289.28
2022-11-07T08:30:40.596Z,98283.97
2022-11-07T08:33:09.333Z,98289.75
2022-11-07T08:35:42.199Z,98283.53
2022-11-07T08:38:12.031Z,98291.19
2022-11-07T08:40:40.058Z,98295.09
2022-11-07T08:43:08.075Z,98295.41
2022-11-07T08:45:36.099Z,98295.94
2022-11-07T08:48:04.235Z,98292.09
2022-11-07T08:50:32.391Z,98300.84
2022-11-07T08:53:03.066Z,98301.50
2022-11-07T08:55:32.810Z,98297.84
2022-11-07T08:58:01.396Z,98293.56
2022-11-07T09:00:29.585Z,98301.22
2022-11-07T09:05:50.276Z,98292.84
2022-11-07T09:08:18.543Z,98300.16
2022-11-07T09:10:47.902Z,98302.63
2022-11-07T09:13:16.135Z,98300.28
2022-11-07T09:15:50.351Z,98304.41
2022-11-07T09:18:19.362Z,98313.91
2022-11-07T09:20:47.424Z,98319.63
2022-11-07T09:23:15.660Z,98324.03
2022-11-07T09:25:44.171Z,98322.13
2022-11-07T09:28:13.734Z,98326.84
2022-11-07T09:30:41.743Z,98332.47
2022-11-07T09:33:09.780Z,98335.75
2022-11-07T09:35:37.802Z,98336.88
2022-11-07T09:38:06.058Z,98323.94
2022-11-07T09:40:44.336Z,98335.28
2022-11-07T09:43:39.974Z,98333.13
2022-11-07T09:46:19.630Z,98333.00
2022-11-07T09:48:52.072Z,98324.47
2022-11-07T09:51:27.948Z,98331.44
2022-11-07T09:54:01.498Z,98327.06
2022-11-07T09:56:32.800Z,98335.16
2022-11-07T09:59:11.267Z,98329.81
2022-11-07T10:01:42.761Z,98344.25
2022-11-07T10:04:25.705Z,98329.63
2022-11-07T10:07:01.172Z,98332.94
2022-11-07T10:09:38.136Z,98321.28
2022-11-07T10:12:19.189Z,98320.25
2022-11-07T10:14:59.006Z,98327.06
2022-11-07T10:17:34.001Z,98327.75
2022-11-07T10:20:14.796Z,98326.13
2022-11-07T10:23:02.732Z,98329.00
2022-11-07T10:25:36.610Z,98328.94
2022-11-07T10:28:16.132Z,98326.56
2022-11-07T10:30:49.256Z,98318.00
2022-11-07T10:33:38.273Z,98327.69
2022-11-07T10:36:14.460Z,98318.31
2022-11-07T10:38:43.549Z,98324.59
2022-11-07T10:41:17.404Z,98325.81
2022-11-07T10:43:49.804Z,98342.50
2022-11-07T10:46:21.911Z,98336.88
2022-11-07T10:48:55.158Z,98332.63
2022-11-07T10:51:34.483Z,98330.25
2022-11-07T10:54:02.554Z,98343.59
2022-11-07T10:56:30.559Z,98339.97
2022-11-07T10:58:59.462Z,98356.34
2022-11-07T11:01:29.133Z,98352.25
2022-11-07T11:03:57.198Z,98345.63
2022-11-07T11:06:31.465Z,98343.00
2022-11-07T11:09:00.665Z,98356.91
2022-11-07T11:11:32.043Z,98334.31
2022-11-07T11:14:08.262Z,98350.47
2022-11-07T11:16:40.096Z,98351.25
2022-11-07T11:19:19.489Z,98329.41
2022-11-07T11:21:49.056Z,98339.09
2022-11-07T11:24:26.441Z,98345.38
2022-11-07T11:26:56.310Z,98343.34
2022-11-07T11:29:39.130Z,98333.84
2022-11-07T11:32:17.702Z,98331.19
2022-11-07T11:34:54.859Z,98332.72
2022-11-07T11:37:24.552Z,98333.06
2022-11-07T11:40:07.839Z,98323.03
2022-11-07T11:42:47.164Z,98315.97
2022-11-07T11:45:18.643Z,98324.16
2022-11-07T11:47:56.523Z,98329.00
2022-11-07T11:50:31.380Z,98344.44
2022-11-07T11:53:01.239Z,98364.38
2022-11-07T11:55:40.035Z,98348.22
2022-11-07T11:58:20.375Z,98350.66
2022-11-07T12:00:55.027Z,98339.91
2022-11-07T12:03:40.699Z,98349.78
2022-11-07T12:06:16.034Z,98342.06
2022-11-07T12:09:15.343Z,98333.44
2022-11-07T12:11:58.871Z,98336.25
2022-11-07T12:14:54.414Z,98330.22
2022-11-07T12:17:33.048Z,98329.53
2022-11-07T12:20:14.082Z,98317.72
2022-11-07T12:22:51.820Z,98324.41
2022-11-07T12:25:28.049Z,98333.56
2022-11-07T12:28:05.290Z,98316.97
2022-11-07T12:30:43.202Z,98326.69
2022-11-07T12:33:24.350Z,98343.63
2022-11-07T12:35:58.178Z,98347.72
2022-11-07T12:38:59.959Z,98335.00
2022-11-07T12:41:38.577Z,98326.72
2022-11-07T12:44:19.805Z,98348.69
2022-11-07T12:46:52.786Z,98333.34
2022-11-07T12:49:48.933Z,98331.56
2022-11-07T12:52:32.256Z,98334.16
2022-11-07T12:55:03.958Z,98336.78
2022-11-07T12:57:34.390Z,98324.25
2022-11-07T13:00:06.600Z,98351.72
2022-11-07T13:02:51.797Z,98348.44
2022-11-07T13:05:36.941Z,98353.41
2022-11-07T13:08:12.330Z,98352.19
2022-11-07T13:10:48.605Z,98342.56
2022-11-07T13:13:23.494Z,98335.38
2022-11-07T13:16:14.629Z,98340.56
2022-11-07T13:21:12.365Z,98348.84
2022-11-07T13:23:42.202Z,98345.78
2022-11-07T13:26:32.965Z,98361.25
2022-11-07T13:29:00.140Z,98353.00
2022-11-07T13:31:34.589Z,98345.19
2022-11-07T13:34:24.375Z,98349.63
2022-11-07T13:36:59.429Z,98353.19
2022-11-07T13:39:30.404Z,98350.84
2022-11-07T13:42:00.639Z,98361.31
2022-11-07T13:44:32.952Z,98345.91
2022-11-07T13:47:05.639Z,98359.09
2022-11-07T13:49:44.226Z,98359.09
2022-11-07T13:52:18.639Z,98355.41
2022-11-07T13:54:54.419Z,98359.19
2022-11-07T13:57:28.882Z,98368.91
2022-11-07T14:00:01.378Z,98384.59
2022-11-07T14:02:31.190Z,98375.66
2022-11-07T14:05:20.012Z,98371.25
2022-11-07T14:07:49.670Z,98371.84
2022-11-07T14:10:25.174Z,98383.50
2022-11-07T14:12:57.608Z,98409.47
2022-11-07T14:15:25.884Z,98382.59
2022-11-07T14:17:53.948Z,98408.84
2022-11-07T14:20:22.320Z,98394.84
2022-11-07T14:22:52.448Z,98414.91
2022-11-07T14:25:26.819Z,98407.69
2022-11-07T14:27:55.153Z,98394.84
2022-11-07T14:30:25.670Z,98408.03
2022-11-07T14:32:55.896Z,98415.97
2022-11-07T14:35:27.478Z,98418.16
2022-11-07T14:37:56.820Z,98417.22
2022-11-07T14:40:27.024Z,98425.66
2022-11-07T14:42:55.303Z,98415.69
2022-11-07T14:45:55.079Z,98412.09
2022-11-07T14:48:14.785Z,98423.16
2022-11-07T14:50:43.471Z,98417.16
2022-11-07T14:53:20.104Z,98412.31
2022-11-07T14:55:53.896Z,98407.81
2022-11-07T14:58:24.953Z,98411.00
2022-11-07T15:00:55.987Z,98415.22
2022-11-07T15:03:32.100Z,98416.59
2022-11-07T15:06:00.375Z,98419.16
2022-11-07T15:08:30.208Z,98429.78
2022-11-07T15:11:06.425Z,98420.16
2022-11-07T15:13:36.162Z,98426.97
2022-11-07T15:16:07.052Z,98421.63
2022-11-07T15:18:40.322Z,98435.25
2022-11-07T15:21:11.732Z,98421.84
2022-11-07T15:23:39.748Z,98418.47
2022-11-07T15:26:13.889Z,98419.78
2022-11-07T15:28:47.297Z,98421.06
2022-11-07T15:31:23.955Z,98426.34
2022-11-07T15:33:53.108Z,98421.13
2022-11-07T15:36:21.626Z,98424.94
2022-11-07T15:38:50.905Z,98426.56
2022-11-07T15:41:20.425Z,98429.19
2022-11-07T15:43:48.400Z,98425.56
2022-11-07T15:46:26.634Z,98429.72
2022-11-07T15:48:54.829Z,98429.47
2022-11-07T15:51:22.830Z,98439.66
2022-11-07T15:53:50.955Z,98445.94
2022-11-07T15:56:23.081Z,98437.00
2022-11-07T15:58:51.428Z,98443.22
2022-11-07T16:01:19.848Z,98450.56
2022-11-07T16:03:47.862Z,98449.38
2022-11-07T16:06:20.804Z,98456.75
2022-11-07T16:08:48.838Z,98449.56
2022-11-07T16:11:16.935Z,98454.31
2022-11-07T16:13:47.117Z,98445.34
2022-11-07T16:16:20.409Z,98451.63
2022-11-07T16:18:50.703Z,98447.22
2022-11-07T16:21:18.810Z,98449.16
2022-11-07T16:23:49.597Z,98453.34
2022-11-07T16:26:21.526Z,98458.84
2022-11-07T16:28:51.034Z,98462.00
2022-11-07T16:31:19.427Z,98463.81
2022-11-07T16:33:47.439Z,98471.34
2022-11-07T16:36:21.900Z,98461.38
2022-11-07T16:38:50.143Z,98467.28
2022-11-07T16:41:18.163Z,98465.41
2022-11-07T16:43:47.061Z,98481.03
2022-11-07T16:46:18.489Z,98469.72
2022-11-07T16:48:48.415Z,98464.69
2022-11-07T16:51:18.031Z,98475.13
2022-11-07T16:53:46.773Z,98469.31
2022-11-07T16:56:23.542Z,98464.69
2022-11-07T16:58:52.955Z,98473.16
2022-11-07T17:01:23.403Z,98471.75
2022-11-07T17:03:51.688Z,98480.09
2022-11-07T17:06:21.874Z,98474.38
2022-11-07T17:08:49.889Z,98474.63
2022-11-07T17:11:19.216Z,98475.56
2022-11-07T17:13:47.271Z,98478.38
2022-11-07T17:16:17.885Z,98473.06
2022-11-07T17:18:47.483Z,98483.22
2022-11-07T17:21:23.699Z,98482.66
2022-11-07T17:23:52.532Z,98487.72
2022-11-07T17:26:22.970Z,98489.03
2022-11-07T17:28:51.942Z,98497.84
2022-11-07T17:31:20.319Z,98488.56
2022-11-07T17:33:49.961Z,98494.47
2022-11-07T17:36:29.764Z,98497.81
2022-11-07T17:39:03.676Z,98495.03
2022-11-07T17:41:31.871Z,98494.13
2022-11-07T17:44:00.966Z,98488.66
2022-11-07T17:46:31.753Z,98496.34
2022-11-07T17:49:03.373Z,98498.81
2022-11-07T17:51:31.484Z,98516.47
2022-11-07T17:54:00.105Z,98502.22
2022-11-07T17:56:29.783Z,98511.78
2022-11-07T17:59:00.098Z,98502.97
2022-11-07T18:01:31.043Z,98500.03
2022-11-07T18:04:01.920Z,98488.28
2022-11-07T18:06:30.796Z,98493.38
2022-11-07T18:09:00.190Z,98495.22
2022-11-07T18:11:30.554Z,98494.16
2022-11-07T18:13:59.915Z,98495.53
2022-11-07T18:16:31.227Z,98491.97
2022-11-07T18:19:02.148Z,98493.03
2022-11-07T18:21:30.573Z,98493.00
2022-11-07T18:23:58.889Z,98496.28
2022-11-07T18:26:30.851Z,98497.13
2022-11-07T18:29:08.908Z,98484.75
2022-11-07T18:31:40.577Z,98493.19
2022-11-07T18:34:12.980Z,98490.00
2022-11-07T18:36:42.989Z,98484.22
2022-11-07T18:39:15.046Z,98485.81
2022-11-07T18:41:43.576Z,98488.00
2022-11-07T18:44:12.479Z,98491.53
2022-11-07T18:46:41.073Z,98489.84
2022-11-07T18:49:12.322Z,98493.03
2022-11-07T18:51:40.762Z,98493.72
2022-11-07T18:54:08.769Z,98498.16
2022-11-07T18:56:36.823Z,98495.63
2022-11-07T18:59:04.873Z,98495.09
2022-11-07T19:01:34.138Z,98496.13
2022-11-07T19:04:05.762Z,98500.31
2022-11-07T19:06:35.344Z,98510.06
2022-11-07T19:09:03.611Z,98503.63
2022-11-07T19:11:34.059Z,98514.03
2022-11-07T19:14:03.816Z,98520.94
2022-11-07T19:16:32.403Z,98513.56
2022-11-07T19:19:01.085Z,98518.59
2022-11-07T19:21:29.118Z,98515.44
2022-11-07T19:23:58.536Z,98524.41
2022-11-07T19:26:26.536Z,98529.25
2022-11-07T19:28:55.284Z,98532.00
2022-11-07T19:31:23.346Z,98524.00
2022-11-07T19:33:51.394Z,98528.19
2022-11-07T19:36:21.441Z,98525.22
2022-11-07T19:38:50.497Z,98520.44
2022-11-07T19:41:20.407Z,98521.22
2022-11-07T19:43:50.121Z,98523.41
2022-11-07T19:46:20.770Z,98522.47
2022-11-07T19:48:49.772Z,98516.72
2022-11-07T19:51:22.576Z,98520.06
2022-11-07T19:53:55.055Z,98520.31
2022-11-07T19:56:26.381Z,98518.19
2022-11-07T19:58:55.444Z,98516.81
2022-11-07T20:01:25.804Z,98528.53
2022-11-07T20:03:55.803Z,98515.84
2022-11-07T20:06:25.645Z,98519.03
2022-11-07T20:08:54.325Z,98517.44
2022-11-07T20:11:26.697Z,98532.09
2022-11-07T20:14:02.697Z,98543.13
2022-11-07T20:16:32.214Z,98546.19
2022-11-07T20:19:01.362Z,98536.97
2022-11-07T20:21:30.402Z,98540.06
2022-11-07T20:23:59.933Z,98521.34
2022-11-07T20:26:31.579Z,98529.59
2022-11-07T20:29:00.365Z,98530.69
2022-11-07T20:31:30.635Z,98534.66
2022-11-07T20:33:59.834Z,98526.88
2022-11-07T20:36:28.418Z,98537.94
2022-11-07T20:38:57.041Z,98539.03
2022-11-07T20:41:27.202Z,98532.69
2022-11-07T20:43:56.862Z,98548.41
2022-11-07T20:46:25.182Z,98537.97
2022-11-07T20:48:54.185Z,98545.69
2022-11-07T20:51:25.239Z,98550.13
2022-11-07T20:53:53.949Z,98553.50
2022-11-07T20:56:23.621Z,98551.88
2022-11-07T20:58:51.959Z,98547.47
2022-11-07T21:01:23.620Z,98555.31
2022-11-07T21:03:52.126Z,98556.50
2022-11-07T21:06:20.835Z,98560.38
2022-11-07T21:08:50.388Z,98551.28
2022-11-07T21:11:19.012Z,98556.78
2022-11-07T21:13:52.656Z,98555.72
2022-11-07T21:16:23.481Z,98553.34
2022-11-07T21:18:52.279Z,98560.13
2022-11-07T21:21:22.250Z,98555.75
2022-11-07T21:23:52.499Z,98553.13
2022-11-07T21:26:26.559Z,98546.25
2022-11-07T21:28:55.880Z,98554.66
2022-11-07T21:31:28.585Z,98544.63
2022-11-07T21:33:57.742Z,98561.19
2022-11-07T21:36:27.889Z,98551.63
2022-11-07T21:38:56.610Z,98557.97
2022-11-07T21:41:25.145Z,98558.13
2022-11-07T21:43:53.190Z,98557.84
2022-11-07T21:46:23.642Z,98559.97
2022-11-07T21:48:53.554Z,98558.72
2022-11-07T21:51:23.286Z,98562.41
2022-11-07T21:53:51.683Z,98567.28
2022-11-07T21:56:23.182Z,98567.81
2022-11-07T21:58:51.970Z,98564.44
2022-11-07T22:01:21.053Z,98574.03
2022-11-07T22:04:08.015Z,98570.63
2022-11-07T22:06:39.736Z,98567.00
2022-11-07T22:09:09.584Z,98565.19
2022-11-07T22:11:37.558Z,98568.47
2022-11-07T22:14:06.432Z,98569.94
2022-11-07T22:16:34.699Z,98570.56
2022-11-07T22:19:02.714Z,98570.81
2022-11-07T22:21:31.400Z,98570.28
2022-11-07T22:24:00.725Z,98568.25
2022-11-07T22:26:29.951Z,98567.88
2022-11-07T22:28:58.077Z,98566.47
2022-11-07T22:31:28.572Z,98577.31
2022-11-07T22:33:57.400Z,98571.16
2022-11-07T22:36:26.002Z,98573.34
2022-11-07T22:38:53.957Z,98560.75
2022-11-07T22:41:25.707Z,98560.19
2022-11-07T22:43:54.159Z,98564.97
2022-11-07T22:46:24.065Z,98555.16
2022-11-07T22:48:52.948Z,98566.31
2022-11-07T22:51:23.487Z,98559.69
2022-11-07T22:53:57.134Z,98561.66
2022-11-07T22:56:27.753Z,98559.28
2022-11-07T22:58:56.279Z,98568.09
2022-11-07T23:01:26.427Z,98575.38
2022-11-07T23:03:55.536Z,98557.78
2022-11-07T23:06:24.936Z,98561.06
2022-11-07T23:08:53.425Z,98560.00
2022-11-07T23:14:15.624Z,98562.03
2022-11-07T23:16:46.171Z,98548.41
2022-11-07T23:19:16.272Z,98554.72
2022-11-07T23:21:44.704Z,98556.53
2022-11-07T23:24:12.716Z,98558.88
2022-11-07T23:26:41.030Z,98553.47
2022-11-07T23:29:13.462Z,98557.16
2022-11-07T23:31:43.093Z,98565.34
2022-11-07T23:34:11.605Z,98555.06
2022-11-07T23:36:43.955Z,98558.25
2022-11-07T23:39:15.711Z,98561.16
2022-11-07T23:41:44.118Z,98554.00
2022-11-07T23:44:14.396Z,98556.69
2022-11-07T23:47:00.559Z,98553.06
2022-11-07T23:49:45.325Z,98553.84
2022-11-07T23:52:13.578Z,98559.34
2022-11-07T23:54:59.480Z,98556.84
2022-11-07T23:57:27.611Z,98551.69
